Time;durP1;ratioP1;P1;durP2;ratioP2;P2;SDS_P1;SDS_P2;PMS_P1;PMS_P2;Temp;Humidity;BMP_temperature;BMP_pressure;BME280_temperature;BME280_humidity;BME280_pressure;Samples;Min_cycle;Max_cycle;Signal;HPM_P1;HPM_P2
2023/05/04 00:01:22;;;;;;;2.70;2.50;;;11.50;67.50;;;;;;5082371;28;20427;-72
2023/05/04 00:03:48;;;;;;;3.17;2.53;;;11.50;67.40;;;;;;5079089;28;20897;-73
2023/05/04 00:06:15;;;;;;;3.60;2.60;;;11.50;67.50;;;;;;5071739;28;20890;-72
2023/05/04 00:08:42;;;;;;;4.22;2.58;;;11.50;65.70;;;;;;5075446;28;20452;-72
2023/05/04 00:11:10;;;;;;;3.72;2.45;;;11.50;65.80;;;;;;5080455;28;20796;-72
2023/05/04 00:13:37;;;;;;;4.40;2.50;;;11.50;65.90;;;;;;5078243;28;20440;-72
2023/05/04 00:16:04;;;;;;;3.55;2.55;;;11.50;65.00;;;;;;5081879;28;20422;-73
2023/05/04 00:18:30;;;;;;;3.38;2.30;;;11.50;64.90;;;;;;5077789;28;20437;-71
2023/05/04 00:20:57;;;;;;;3.83;2.80;;;11.50;65.00;;;;;;5082130;28;20919;-72
2023/05/04 00:23:24;;;;;;;3.50;2.50;;;11.50;64.70;;;;;;5079235;28;20430;-72
2023/05/04 00:25:51;;;;;;;3.35;2.60;;;11.50;64.70;;;;;;5082052;28;20912;-72
2023/05/04 00:28:19;;;;;;;4.00;2.75;;;11.50;64.90;;;;;;5072258;28;20453;-72
2023/05/04 00:30:46;;;;;;;3.50;2.22;;;11.50;65.30;;;;;;5081200;28;20453;-71
2023/05/04 00:33:13;;;;;;;4.47;2.60;;;11.50;64.90;;;;;;5085824;28;20425;-72
2023/05/04 00:35:40;;;;;;;2.78;2.40;;;11.40;64.50;;;;;;5085209;28;20442;-71
2023/05/04 00:38:07;;;;;;;4.10;2.60;;;11.40;65.20;;;;;;5083198;28;20454;-72
2023/05/04 00:40:34;;;;;;;4.05;2.70;;;11.40;65.70;;;;;;5080677;28;20526;-72
2023/05/04 00:43:01;;;;;;;3.28;2.90;;;11.40;66.00;;;;;;5085816;28;20777;-72
2023/05/04 00:45:29;;;;;;;3.75;2.50;;;11.30;66.90;;;;;;5084160;28;20438;-72
2023/05/04 00:47:56;;;;;;;3.30;2.90;;;11.30;67.30;;;;;;5084779;28;20440;-72
2023/05/04 00:50:24;;;;;;;3.13;2.70;;;11.20;67.80;;;;;;5086131;28;20429;-72
2023/05/04 00:52:52;;;;;;;5.60;3.17;;;11.20;68.20;;;;;;5081675;28;20430;-73
2023/05/04 00:55:19;;;;;;;5.00;2.80;;;11.20;67.90;;;;;;5080701;28;20426;-73
2023/05/04 00:57:46;;;;;;;3.42;2.65;;;11.10;67.00;;;;;;5085708;28;20967;-72
2023/05/04 01:00:13;;;;;;;3.53;2.70;;;11.10;66.90;;;;;;5082621;28;20425;-72
2023/05/04 01:02:41;;;;;;;3.80;2.70;;;11.10;66.80;;;;;;5078157;28;20456;-71
2023/05/04 01:05:11;;;;;;;3.83;2.72;;;11.10;67.00;;;;;;5082812;28;20540;-73
2023/05/04 01:07:45;;;;;;;3.40;2.58;;;11.00;68.00;;;;;;5084814;28;20438;-72
2023/05/04 01:10:17;;;;;;;3.58;2.80;;;11.00;67.50;;;;;;5077328;28;20426;-72
2023/05/04 01:12:51;;;;;;;3.50;2.30;;;11.00;67.40;;;;;;5074820;28;20940;-71
2023/05/04 01:15:18;;;;;;;3.00;2.40;;;11.00;67.20;;;;;;5078334;28;20458;-73
2023/05/04 01:17:46;;;;;;;2.90;2.33;;;11.00;67.80;;;;;;5084172;28;20504;-72
2023/05/04 01:20:13;;;;;;;3.13;2.83;;;11.00;67.90;;;;;;5081904;28;20437;-72
2023/05/04 01:22:42;;;;;;;2.80;2.50;;;11.00;68.20;;;;;;5081663;28;20495;-73
2023/05/04 01:25:10;;;;;;;4.00;2.42;;;11.00;69.10;;;;;;5078184;28;20439;-73
2023/05/04 01:27:42;;;;;;;4.07;2.80;;;10.90;68.60;;;;;;5078642;28;20524;-72
2023/05/04 01:30:14;;;;;;;2.92;2.22;;;10.90;68.60;;;;;;5084452;28;20436;-71
2023/05/04 01:32:42;;;;;;;2.83;2.22;;;10.90;68.90;;;;;;5072211;28;20555;-72
2023/05/04 01:35:12;;;;;;;3.53;2.30;;;10.90;68.50;;;;;;5082683;28;20504;-72
2023/05/04 01:37:39;;;;;;;3.97;2.50;;;10.80;68.80;;;;;;5082994;28;20497;-71
2023/05/04 01:40:08;;;;;;;2.70;2.20;;;10.80;68.50;;;;;;5084649;28;20548;-71
2023/05/04 01:42:35;;;;;;;3.30;2.80;;;10.80;68.80;;;;;;5084039;28;20437;-73
2023/05/04 01:45:02;;;;;;;2.88;2.45;;;10.80;68.80;;;;;;5083901;28;20521;-73
2023/05/04 01:47:29;;;;;;;3.30;2.30;;;10.80;69.40;;;;;;5083682;28;20437;-73
2023/05/04 01:49:56;;;;;;;4.45;2.40;;;10.80;68.60;;;;;;5080113;28;20478;-73
2023/05/04 01:52:23;;;;;;;3.63;2.30;;;10.70;69.20;;;;;;5082779;28;20426;-71
2023/05/04 01:54:49;;;;;;;3.60;2.20;;;10.70;69.40;;;;;;5083884;28;20433;-73
2023/05/04 01:57:17;;;;;;;2.50;2.15;;;10.70;70.00;;;;;;5078903;28;20816;-73
2023/05/04 01:59:44;;;;;;;3.67;2.90;;;10.70;69.60;;;;;;5084794;28;20464;-73
2023/05/04 02:02:11;;;;;;;2.88;2.40;;;10.70;70.40;;;;;;5080023;28;20435;-73
2023/05/04 02:04:38;;;;;;;3.25;2.50;;;10.60;69.90;;;;;;5081406;28;20465;-73
2023/05/04 02:07:05;;;;;;;5.28;2.50;;;10.60;70.10;;;;;;5081753;28;20442;-73
2023/05/04 02:09:31;;;;;;;4.10;2.80;;;10.60;70.20;;;;;;5080062;28;20492;-73
2023/05/04 02:11:58;;;;;;;3.50;2.60;;;10.60;70.30;;;;;;5078887;28;20481;-73
2023/05/04 02:14:26;;;;;;;2.80;2.50;;;10.50;69.80;;;;;;5071925;28;20818;-73
2023/05/04 02:16:53;;;;;;;3.33;2.50;;;10.50;70.20;;;;;;5082839;28;20445;-73
2023/05/04 02:19:20;;;;;;;4.00;2.70;;;10.50;70.40;;;;;;5074634;28;20515;-73
2023/05/04 02:21:47;;;;;;;2.67;2.47;;;10.40;70.70;;;;;;5080029;28;20429;-73
2023/05/04 02:24:14;;;;;;;3.10;2.70;;;10.40;70.30;;;;;;5077991;28;20457;-73
2023/05/04 02:26:41;;;;;;;4.80;2.90;;;10.40;70.00;;;;;;5077581;28;20435;-73
2023/05/04 02:29:08;;;;;;;5.07;3.08;;;10.40;70.20;;;;;;5084960;28;20432;-73
2023/05/04 02:31:36;;;;;;;4.40;2.80;;;10.30;70.60;;;;;;5083310;28;20437;-73
2023/05/04 02:34:03;;;;;;;4.65;2.90;;;10.30;70.90;;;;;;5081716;28;20440;-73
2023/05/04 02:36:30;;;;;;;4.67;2.70;;;10.30;70.80;;;;;;5083978;28;20931;-72
2023/05/04 02:38:59;;;;;;;3.20;2.90;;;10.30;71.60;;;;;;5076791;28;20427;-72
2023/05/04 02:41:25;;;;;;;3.83;2.97;;;10.20;72.10;;;;;;5083401;28;20425;-72
2023/05/04 02:43:52;;;;;;;3.70;3.00;;;10.20;72.60;;;;;;5079226;28;20597;-72
2023/05/04 02:46:19;;;;;;;4.50;3.00;;;10.20;72.80;;;;;;5079411;28;20437;-72
2023/05/04 02:48:47;;;;;;;3.63;2.75;;;10.20;72.00;;;;;;5078399;28;20885;-72
2023/05/04 02:51:14;;;;;;;3.25;2.88;;;10.20;72.40;;;;;;5080803;28;20464;-72
2023/05/04 02:53:40;;;;;;;3.70;3.07;;;10.20;73.00;;;;;;5076320;28;20899;-72
2023/05/04 02:56:07;;;;;;;3.20;2.90;;;10.20;73.90;;;;;;5084096;28;20439;-72
2023/05/04 02:58:34;;;;;;;4.40;3.20;;;10.20;72.70;;;;;;5077548;28;20449;-72
2023/05/04 03:01:01;;;;;;;4.30;3.10;;;10.10;72.30;;;;;;5081327;28;20509;-73
2023/05/04 03:03:27;;;;;;;3.90;2.80;;;10.10;72.30;;;;;;5072912;28;20433;-72
2023/05/04 03:05:55;;;;;;;3.95;2.80;;;10.10;72.00;;;;;;5083974;28;20439;-72
2023/05/04 03:08:22;;;;;;;2.92;2.60;;;10.10;72.50;;;;;;5075715;28;20426;-72
2023/05/04 03:10:49;;;;;;;3.40;3.10;;;10.10;73.00;;;;;;5083940;28;20646;-72
2023/05/04 03:13:16;;;;;;;4.50;2.90;;;10.00;72.80;;;;;;5071026;28;20478;-72
2023/05/04 03:15:42;;;;;;;3.88;2.85;;;10.00;72.70;;;;;;5077962;28;20434;-72
2023/05/04 03:18:09;;;;;;;3.55;2.90;;;10.00;73.40;;;;;;5085827;28;20431;-72
2023/05/04 03:20:36;;;;;;;4.40;3.00;;;10.00;73.30;;;;;;5075922;28;20433;-73
2023/05/04 03:23:04;;;;;;;4.53;3.00;;;10.00;72.70;;;;;;5086506;28;20452;-72
2023/05/04 03:25:31;;;;;;;3.72;2.88;;;9.90;73.40;;;;;;5087818;28;20429;-72
2023/05/04 03:27:58;;;;;;;3.53;2.70;;;9.90;73.00;;;;;;5083921;28;20744;-71
2023/05/04 03:30:24;;;;;;;4.20;3.10;;;9.80;73.60;;;;;;5079868;28;20515;-73
2023/05/04 03:32:51;;;;;;;6.72;3.30;;;9.80;73.60;;;;;;5077971;28;20429;-72
2023/05/04 03:35:18;;;;;;;5.25;3.10;;;9.80;73.90;;;;;;5086498;28;20437;-72
2023/05/04 03:37:45;;;;;;;4.23;3.00;;;9.80;74.10;;;;;;5085655;28;20429;-71
2023/05/04 03:40:14;;;;;;;3.60;2.70;;;9.80;75.10;;;;;;5081656;28;20417;-71
2023/05/04 03:42:40;;;;;;;5.60;3.00;;;9.80;74.20;;;;;;5086158;28;20445;-72
2023/05/04 03:45:08;;;;;;;3.40;3.10;;;9.70;74.80;;;;;;5088098;28;20425;-72
2023/05/04 03:47:35;;;;;;;3.80;2.90;;;9.80;74.90;;;;;;5080524;28;20501;-72
2023/05/04 03:50:02;;;;;;;3.67;3.35;;;9.70;74.90;;;;;;5089116;28;20429;-73
2023/05/04 03:52:28;;;;;;;3.30;3.00;;;9.70;75.30;;;;;;5089266;28;20438;-72
2023/05/04 03:54:55;;;;;;;3.90;3.50;;;9.70;75.80;;;;;;5081805;28;20423;-73
2023/05/04 03:57:23;;;;;;;5.00;3.25;;;9.70;74.90;;;;;;5087091;28;20503;-72
2023/05/04 03:59:50;;;;;;;3.20;2.90;;;9.70;75.40;;;;;;5089179;28;20978;-73
2023/05/04 04:02:17;;;;;;;3.63;3.17;;;9.70;75.70;;;;;;5086371;28;20438;-73
2023/05/04 04:04:43;;;;;;;4.80;3.40;;;9.70;76.60;;;;;;5086931;28;20931;-73
2023/05/04 04:07:10;;;;;;;3.53;2.95;;;9.60;76.50;;;;;;5087663;28;20430;-72
2023/05/04 04:09:37;;;;;;;5.18;3.08;;;9.60;75.90;;;;;;5084007;28;20440;-72
2023/05/04 04:12:04;;;;;;;4.13;3.20;;;9.60;76.50;;;;;;5084158;28;20431;-72
2023/05/04 04:14:32;;;;;;;5.05;3.08;;;9.50;77.20;;;;;;5081542;28;20520;-70
2023/05/04 04:16:58;;;;;;;3.70;2.90;;;9.60;76.50;;;;;;5084147;28;20513;-71
2023/05/04 04:19:25;;;;;;;5.25;3.20;;;9.60;77.60;;;;;;5087383;28;20430;-73
2023/05/04 04:21:52;;;;;;;5.70;3.20;;;9.60;76.70;;;;;;5086705;28;20430;-73
2023/05/04 04:24:19;;;;;;;4.40;3.10;;;9.60;76.40;;;;;;5088229;28;20430;-73
2023/05/04 04:26:45;;;;;;;4.75;3.40;;;9.60;76.70;;;;;;5075690;28;20821;-74
2023/05/04 04:29:12;;;;;;;5.63;3.20;;;9.60;76.50;;;;;;5088045;28;20433;-73
2023/05/04 04:31:40;;;;;;;4.72;3.10;;;9.60;76.10;;;;;;5083018;28;20429;-72
2023/05/04 04:34:07;;;;;;;5.43;3.13;;;9.60;76.90;;;;;;5087842;28;20498;-71
2023/05/04 04:36:34;;;;;;;4.93;3.55;;;9.60;76.70;;;;;;5079889;28;20447;-72
2023/05/04 04:39:01;;;;;;;5.32;3.50;;;9.60;76.70;;;;;;5083096;28;20438;-73
2023/05/04 04:41:27;;;;;;;5.30;3.60;;;9.60;76.20;;;;;;5081589;28;21006;-74
2023/05/04 04:43:54;;;;;;;6.38;3.90;;;9.60;76.70;;;;;;5080475;28;20408;-74
2023/05/04 04:46:21;;;;;;;7.88;4.50;;;9.60;77.20;;;;;;5076926;28;20445;-72
2023/05/04 04:48:50;;;;;;;6.85;4.50;;;9.60;76.90;;;;;;5079667;28;20436;-73
2023/05/04 04:51:17;;;;;;;8.73;4.20;;;9.60;76.90;;;;;;5087624;28;20919;-73
2023/05/04 04:53:43;;;;;;;5.93;4.30;;;9.60;77.50;;;;;;5097434;22;20449;-78
2023/05/04 04:56:10;;;;;;;7.78;4.50;;;9.60;77.10;;;;;;5040341;28;20431;-77
2023/05/04 04:58:37;;;;;;;8.40;4.60;;;9.60;76.90;;;;;;5047488;28;20442;-76
2023/05/04 05:01:04;;;;;;;6.78;4.47;;;9.70;77.60;;;;;;5047137;28;20445;-76
2023/05/04 05:03:31;;;;;;;6.93;4.90;;;9.70;77.20;;;;;;5044142;28;20807;-77
2023/05/04 05:06:00;;;;;;;7.57;4.78;;;9.70;77.80;;;;;;5047564;28;20432;-75
2023/05/04 05:08:27;;;;;;;8.20;5.60;;;9.70;77.40;;;;;;5045217;28;20562;-75
2023/05/04 05:10:55;;;;;;;6.22;4.32;;;9.70;76.80;;;;;;5034238;28;20419;-76
2023/05/04 05:13:21;;;;;;;6.75;4.20;;;9.80;76.60;;;;;;5045769;28;20531;-75
2023/05/04 05:15:48;;;;;;;4.90;3.70;;;9.80;76.30;;;;;;5046090;28;20448;-75
2023/05/04 05:18:15;;;;;;;4.70;3.95;;;9.80;75.80;;;;;;5045067;28;20446;-76
2023/05/04 05:20:41;;;;;;;4.15;3.65;;;9.90;76.20;;;;;;5043172;28;20429;-75
2023/05/04 05:23:09;;;;;;;5.10;3.75;;;9.90;76.40;;;;;;5047348;28;20813;-75
2023/05/04 05:25:36;;;;;;;4.90;3.90;;;10.00;76.00;;;;;;5041707;28;20435;-76
2023/05/04 05:28:04;;;;;;;4.10;3.70;;;10.00;75.80;;;;;;5045097;28;20506;-76
2023/05/04 05:30:31;;;;;;;4.88;3.80;;;10.10;75.00;;;;;;5049307;28;20474;-75
2023/05/04 05:32:58;;;;;;;6.82;4.53;;;10.20;75.30;;;;;;5045628;28;20482;-76
2023/05/04 05:35:24;;;;;;;7.65;4.55;;;10.30;74.90;;;;;;5048296;28;20483;-75
2023/05/04 05:37:51;;;;;;;5.47;3.80;;;10.30;73.80;;;;;;5046124;28;20438;-75
2023/05/04 05:40:21;;;;;;;5.53;3.90;;;10.30;74.10;;;;;;5043651;28;20461;-76
2023/05/04 05:42:47;;;;;;;8.37;4.60;;;10.30;73.90;;;;;;5041963;28;20491;-76
2023/05/04 05:45:14;;;;;;;6.40;4.20;;;10.40;75.00;;;;;;5040239;28;20417;-76
2023/05/04 05:47:41;;;;;;;6.13;4.35;;;10.40;74.10;;;;;;5047788;28;20460;-76
2023/05/04 05:50:08;;;;;;;5.85;4.03;;;10.50;74.60;;;;;;5045136;28;20441;-76
2023/05/04 05:52:35;;;;;;;4.60;4.00;;;10.60;74.60;;;;;;5040920;28;20409;-75
2023/05/04 05:55:02;;;;;;;5.50;4.00;;;10.60;73.70;;;;;;5049689;28;20784;-75
2023/05/04 05:57:30;;;;;;;5.90;4.00;;;10.60;73.80;;;;;;5039727;28;20938;-76
2023/05/04 05:59:57;;;;;;;5.43;3.70;;;10.70;73.00;;;;;;5048000;28;20433;-76
2023/05/04 06:02:32;;;;;;;3.58;3.28;;;10.80;73.30;;;;;;5175304;27;20414;-77
2023/05/04 06:04:59;;;;;;;4.40;3.70;;;10.80;71.50;;;;;;5162434;27;20416;-76
2023/05/04 06:07:26;;;;;;;4.60;3.80;;;10.90;71.10;;;;;;5155388;27;20421;-76
2023/05/04 06:09:53;;;;;;;4.95;3.67;;;10.90;70.90;;;;;;5153589;27;20458;-74
2023/05/04 06:12:20;;;;;;;5.57;3.80;;;11.00;70.00;;;;;;5153206;27;20519;-74
2023/05/04 06:14:47;;;;;;;5.28;3.50;;;11.00;70.40;;;;;;5156693;27;20406;-74
2023/05/04 06:17:14;;;;;;;3.75;3.22;;;11.10;70.00;;;;;;5156136;27;20416;-75
2023/05/04 06:19:42;;;;;;;4.60;3.38;;;11.10;70.00;;;;;;5153621;27;20480;-75
2023/05/04 06:22:09;;;;;;;5.60;3.78;;;11.20;69.70;;;;;;5159041;27;20515;-74
2023/05/04 06:24:36;;;;;;;5.30;3.70;;;11.20;69.20;;;;;;5154929;27;20928;-74
2023/05/04 06:27:03;;;;;;;5.28;3.50;;;11.30;68.40;;;;;;5162413;27;20433;-75
2023/05/04 06:29:30;;;;;;;5.10;3.70;;;11.30;68.70;;;;;;5161260;27;20433;-74
2023/05/04 06:31:56;;;;;;;4.18;3.78;;;11.40;68.40;;;;;;5164141;27;20495;-74
2023/05/04 06:34:23;;;;;;;4.90;3.55;;;11.50;68.30;;;;;;5158467;27;20436;-74
2023/05/04 06:36:51;;;;;;;4.68;3.63;;;11.60;68.40;;;;;;5162874;27;20434;-75
2023/05/04 06:39:18;;;;;;;5.85;3.60;;;11.60;68.30;;;;;;5159342;27;20400;-75
2023/05/04 06:41:45;;;;;;;4.03;3.63;;;11.70;67.60;;;;;;5154966;27;20922;-76
2023/05/04 06:44:12;;;;;;;5.07;3.33;;;11.80;67.80;;;;;;5153062;27;20506;-74
2023/05/04 06:46:39;;;;;;;4.15;3.53;;;11.80;66.90;;;;;;5162445;27;20424;-75
2023/05/04 06:49:06;;;;;;;3.90;3.50;;;11.80;67.40;;;;;;5153869;27;20433;-74
2023/05/04 06:51:35;;;;;;;5.50;3.50;;;11.90;66.90;;;;;;5161586;27;20495;-76
2023/05/04 06:54:03;;;;;;;4.77;3.50;;;12.00;67.30;;;;;;5151627;27;20802;-72
2023/05/04 06:56:30;;;;;;;5.90;4.70;;;12.10;66.40;;;;;;5151553;27;20420;-72
2023/05/04 06:58:57;;;;;;;3.92;3.53;;;12.20;67.80;;;;;;5156996;27;20497;-75
2023/05/04 07:01:23;;;;;;;4.20;3.30;;;12.40;66.30;;;;;;5153581;27;20420;-75
2023/05/04 07:03:50;;;;;;;5.30;3.37;;;12.50;65.30;;;;;;5153123;27;20453;-75
2023/05/04 07:06:17;;;;;;;4.20;3.13;;;12.60;65.30;;;;;;5159472;27;20420;-76
2023/05/04 07:08:44;;;;;;;3.78;3.22;;;12.70;65.10;;;;;;5153531;27;20412;-74
2023/05/04 07:11:12;;;;;;;4.50;3.10;;;12.80;64.00;;;;;;5157694;27;20411;-76
2023/05/04 07:13:39;;;;;;;3.50;3.00;;;12.90;64.00;;;;;;5139117;27;20429;-75
2023/05/04 07:16:07;;;;;;;3.72;3.00;;;13.00;63.80;;;;;;5138952;27;20413;-75
2023/05/04 07:18:34;;;;;;;3.50;3.20;;;13.20;63.10;;;;;;5141528;27;20428;-73
2023/05/04 07:21:01;;;;;;;3.50;3.20;;;13.40;61.20;;;;;;5137433;27;20430;-74
2023/05/04 07:23:28;;;;;;;5.30;3.25;;;13.50;60.50;;;;;;5130467;27;20790;-73
2023/05/04 07:25:54;;;;;;;5.07;3.50;;;13.60;60.30;;;;;;5146856;27;20421;-75
2023/05/04 07:28:23;;;;;;;3.30;3.00;;;13.70;60.30;;;;;;5133521;27;20900;-76
2023/05/04 07:30:50;;;;;;;4.10;3.70;;;13.80;60.10;;;;;;5143304;27;20782;-75
2023/05/04 07:33:16;;;;;;;5.97;3.40;;;13.80;60.10;;;;;;5138359;27;20418;-74
2023/05/04 07:35:43;;;;;;;4.18;3.60;;;13.90;59.30;;;;;;5147315;27;20705;-77
2023/05/04 07:38:10;;;;;;;5.30;3.50;;;14.00;59.10;;;;;;5145640;27;20423;-76
2023/05/04 07:40:37;;;;;;;5.13;3.45;;;14.10;58.60;;;;;;5145730;27;20419;-76
2023/05/04 07:43:04;;;;;;;3.80;3.42;;;14.20;57.80;;;;;;5148154;27;20916;-76
2023/05/04 07:45:32;;;;;;;3.60;3.30;;;14.20;57.60;;;;;;5148299;27;21448;-75
2023/05/04 07:47:59;;;;;;;3.70;3.40;;;14.40;57.30;;;;;;5140906;27;20504;-75
2023/05/04 07:50:27;;;;;;;4.78;3.30;;;14.50;57.20;;;;;;5145205;27;20817;-75
2023/05/04 07:52:54;;;;;;;3.95;3.03;;;14.70;56.50;;;;;;5148708;27;20783;-76
2023/05/04 07:55:21;;;;;;;3.80;3.50;;;14.80;56.50;;;;;;5142804;27;20422;-76
2023/05/04 07:57:48;;;;;;;3.90;3.40;;;15.10;55.20;;;;;;5140092;27;20936;-77
2023/05/04 08:00:16;;;;;;;4.30;3.45;;;15.30;53.90;;;;;;5143663;27;20905;-76
2023/05/04 08:02:44;;;;;;;3.60;3.15;;;15.40;52.80;;;;;;5149769;27;20428;-77
2023/05/04 08:05:11;;;;;;;3.80;3.40;;;15.50;52.80;;;;;;5150263;27;20511;-77
2023/05/04 08:07:37;;;;;;;4.15;3.30;;;15.60;52.60;;;;;;5150723;27;20428;-78
2023/05/04 08:10:05;;;;;;;4.15;3.13;;;15.80;52.10;;;;;;5142200;27;20885;-76
2023/05/04 08:12:32;;;;;;;3.20;2.75;;;15.90;51.90;;;;;;5139073;27;20958;-75
2023/05/04 08:14:59;;;;;;;4.82;3.10;;;16.10;51.40;;;;;;5136776;27;20415;-74
2023/05/04 08:17:26;;;;;;;3.78;3.05;;;16.30;51.00;;;;;;5136433;27;20456;-74
2023/05/04 08:19:54;;;;;;;4.07;2.88;;;16.30;49.50;;;;;;5142854;27;20423;-74
2023/05/04 08:22:21;;;;;;;4.10;3.10;;;16.40;50.60;;;;;;5133020;27;20545;-74
2023/05/04 08:24:47;;;;;;;3.70;3.30;;;16.40;50.00;;;;;;5140059;27;20424;-73
2023/05/04 08:27:14;;;;;;;3.78;3.10;;;16.50;49.80;;;;;;5139890;27;20451;-73
2023/05/04 08:29:41;;;;;;;5.10;3.40;;;16.70;49.70;;;;;;5144431;27;21012;-75
2023/05/04 08:32:08;;;;;;;4.50;3.58;;;16.80;49.70;;;;;;5144776;27;20432;-74
2023/05/04 08:34:37;;;;;;;4.85;3.42;;;17.10;48.60;;;;;;5152015;27;20430;-75
2023/05/04 08:37:05;;;;;;;5.28;3.67;;;17.20;48.20;;;;;;5135291;27;20418;-73
2023/05/04 08:39:32;;;;;;;4.63;4.07;;;17.30;48.00;;;;;;5144811;27;20404;-74
2023/05/04 08:41:58;;;;;;;3.97;3.58;;;17.40;47.40;;;;;;5137547;27;20535;-74
2023/05/04 08:44:25;;;;;;;4.30;3.70;;;17.50;47.30;;;;;;5143507;27;20422;-75
2023/05/04 08:46:53;;;;;;;5.00;3.90;;;17.60;47.20;;;;;;5144984;27;20435;-74
2023/05/04 08:49:20;;;;;;;3.80;3.40;;;17.80;47.00;;;;;;5142816;27;20462;-75
2023/05/04 08:51:49;;;;;;;4.60;4.20;;;18.00;46.70;;;;;;5143156;27;20700;-74
2023/05/04 08:54:17;;;;;;;5.60;4.10;;;18.10;46.20;;;;;;5144895;27;20431;-74
2023/05/04 08:56:45;;;;;;;5.13;4.00;;;18.10;46.60;;;;;;5141079;27;20418;-72
2023/05/04 08:59:20;;;;;;;5.15;4.00;;;18.20;47.30;;;;;;5136210;27;20424;-74
2023/05/04 09:01:49;;;;;;;5.03;4.53;;;18.20;46.60;;;;;;5149124;27;20789;-75
2023/05/04 09:04:17;;;;;;;4.75;3.80;;;18.40;46.60;;;;;;5140433;27;20424;-74
2023/05/04 09:06:46;;;;;;;4.40;4.00;;;18.60;46.20;;;;;;5144814;27;20422;-73
2023/05/04 09:09:13;;;;;;;4.00;3.50;;;18.70;45.60;;;;;;5135038;27;20541;-74
2023/05/04 09:11:42;;;;;;;5.18;4.15;;;18.80;45.60;;;;;;5141107;27;20434;-75
2023/05/04 09:14:08;;;;;;;4.47;4.07;;;19.00;45.20;;;;;;5151069;27;20428;-75
2023/05/04 09:16:36;;;;;;;4.70;4.20;;;19.10;45.00;;;;;;5135628;27;20429;-74
2023/05/04 09:19:03;;;;;;;4.80;4.40;;;19.20;44.40;;;;;;5144048;27;20433;-74
2023/05/04 09:21:31;;;;;;;6.97;4.00;;;19.40;44.50;;;;;;5150805;27;20425;-74
2023/05/04 09:23:58;;;;;;;4.00;3.70;;;19.50;44.20;;;;;;5147482;27;20428;-75
2023/05/04 09:26:29;;;;;;;4.72;4.10;;;19.40;43.60;;;;;;5137401;27;20535;-74
2023/05/04 09:28:57;;;;;;;4.53;3.78;;;19.50;43.80;;;;;;5139898;27;20430;-74
2023/05/04 09:31:25;;;;;;;4.45;4.05;;;19.50;44.00;;;;;;5136854;27;20690;-76
2023/05/04 09:33:52;;;;;;;4.10;3.70;;;19.60;43.80;;;;;;5134795;27;20413;-75
2023/05/04 09:36:19;;;;;;;5.20;3.70;;;19.80;43.50;;;;;;5137070;27;20939;-74
2023/05/04 09:38:47;;;;;;;4.95;4.10;;;19.80;43.50;;;;;;5145920;27;20468;-76
2023/05/04 09:41:14;;;;;;;4.25;3.85;;;20.00;42.90;;;;;;5155304;27;20434;-74
2023/05/04 09:43:42;;;;;;;5.70;3.90;;;20.20;42.80;;;;;;5153599;27;21023;-73
2023/05/04 09:46:17;;;;;;;4.45;3.70;;;20.20;43.20;;;;;;5157840;27;20431;-75
2023/05/04 09:48:52;;;;;;;4.75;3.60;;;20.40;43.00;;;;;;5148162;27;20473;-75
2023/05/04 09:51:21;;;;;;;6.30;4.10;;;20.60;42.50;;;;;;5147751;27;20421;-75
2023/05/04 09:53:49;;;;;;;5.13;3.90;;;20.70;42.50;;;;;;5142958;27;21023;-75
2023/05/04 09:56:26;;;;;;;4.60;4.20;;;20.60;42.40;;;;;;5142739;27;20445;-77
2023/05/04 09:58:56;;;;;;;4.85;4.45;;;20.70;42.10;;;;;;5149799;27;20411;-75
2023/05/04 10:01:27;;;;;;;6.13;5.57;;;20.70;43.00;;;;;;5148243;27;21108;-75
2023/05/04 10:03:54;;;;;;;4.80;4.20;;;20.80;43.40;;;;;;5143103;27;20426;-76
2023/05/04 10:06:22;;;;;;;5.03;4.30;;;21.00;43.20;;;;;;5140035;27;20426;-77
2023/05/04 10:08:49;;;;;;;4.53;4.13;;;21.10;43.00;;;;;;5135160;27;20485;-74
2023/05/04 10:11:18;;;;;;;5.32;4.80;;;21.00;42.80;;;;;;5143828;27;20893;-76
2023/05/04 10:13:45;;;;;;;4.65;4.13;;;20.90;43.90;;;;;;5138457;27;20479;-76
2023/05/04 10:16:36;;;;;;;4.10;3.70;;;20.90;42.70;;;;;;5129115;27;20903;-77
2023/05/04 10:19:45;;;;;;;4.20;3.80;;;21.10;43.80;;;;;;5149947;27;20413;-76
2023/05/04 10:22:30;;;;;;;5.15;4.20;;;21.20;41.50;;;;;;5134209;27;20473;-75
2023/05/04 10:25:18;;;;;;;5.05;4.10;;;21.40;42.20;;;;;;5135239;27;20419;-78
2023/05/04 10:27:56;;;;;;;4.95;4.07;;;21.70;40.50;;;;;;5140858;27;20453;-76
2023/05/04 10:30:24;;;;;;;3.83;3.53;;;21.80;41.20;;;;;;5130463;27;20426;-77
2023/05/04 10:32:56;;;;;;;3.70;3.40;;;21.70;40.20;;;;;;5136032;27;20447;-76
2023/05/04 10:35:23;;;;;;;4.95;3.60;;;22.00;40.20;;;;;;5142991;27;20935;-77
2023/05/04 10:37:53;;;;;;;3.75;3.42;;;22.30;38.80;;;;;;5146050;27;20429;-77
2023/05/04 10:40:32;;;;;;;3.80;3.50;;;22.20;37.90;;;;;;5148578;27;20832;-76
2023/05/04 10:42:59;;;;;;;4.60;3.30;;;22.10;38.30;;;;;;5147172;27;20470;-77
2023/05/04 10:45:35;;;;;;;4.03;3.38;;;22.30;38.20;;;;;;5138603;27;20427;-77
2023/05/04 10:48:04;;;;;;;5.50;3.03;;;22.10;37.50;;;;;;5139838;27;20432;-79
2023/05/04 10:50:42;;;;;;;4.40;2.80;;;22.30;37.70;;;;;;5152427;27;20490;-78
2023/05/04 10:53:09;;;;;;;3.50;3.20;;;22.50;37.00;;;;;;5145035;27;20412;-77
2023/05/04 10:55:40;;;;;;;3.63;3.20;;;22.60;36.80;;;;;;5150169;27;20422;-76
2023/05/04 10:58:08;;;;;;;4.75;2.90;;;22.70;36.30;;;;;;5136039;27;20437;-76
2023/05/04 11:00:37;;;;;;;5.13;2.80;;;22.80;36.00;;;;;;5143714;27;20435;-76
2023/05/04 11:03:06;;;;;;;4.10;2.80;;;23.20;34.50;;;;;;5151620;27;20532;-74
2023/05/04 11:05:43;;;;;;;3.90;3.10;;;23.30;34.50;;;;;;5149569;27;20416;-76
2023/05/04 11:08:17;;;;;;;3.22;2.80;;;23.30;33.70;;;;;;5140245;27;20425;-77
2023/05/04 11:10:44;;;;;;;2.58;2.38;;;23.20;33.00;;;;;;5145533;27;20516;-75
2023/05/04 11:13:12;;;;;;;3.72;2.60;;;23.20;33.50;;;;;;5150424;27;20927;-76
2023/05/04 11:15:50;;;;;;;3.78;2.72;;;23.30;32.80;;;;;;5147205;27;20424;-77
2023/05/04 11:18:27;;;;;;;3.13;2.70;;;23.50;32.30;;;;;;5148154;27;20432;-75
2023/05/04 11:20:55;;;;;;;2.60;2.40;;;23.70;32.70;;;;;;5139151;27;20827;-74
2023/05/04 11:23:22;;;;;;;3.90;2.70;;;23.90;32.70;;;;;;5146385;27;20850;-74
2023/05/04 11:25:49;;;;;;;3.60;2.50;;;23.80;34.10;;;;;;5151105;27;20909;-76
2023/05/04 11:28:16;;;;;;;2.80;2.60;;;23.90;32.20;;;;;;5149482;27;20477;-77
2023/05/04 11:30:45;;;;;;;4.35;2.40;;;23.90;31.30;;;;;;5157226;27;20423;-78
2023/05/04 11:33:12;;;;;;;3.05;2.30;;;23.80;30.70;;;;;;5147470;27;20423;-74
2023/05/04 11:35:42;;;;;;;2.88;2.40;;;23.50;31.50;;;;;;5155169;27;20500;-77
2023/05/04 11:38:09;;;;;;;2.97;2.67;;;23.60;31.00;;;;;;5157720;27;20473;-75
2023/05/04 11:40:39;;;;;;;3.30;2.30;;;23.90;31.30;;;;;;5148058;27;20439;-77
2023/05/04 11:43:11;;;;;;;2.70;2.40;;;24.10;30.80;;;;;;5145810;27;20438;-74
2023/05/04 11:45:41;;;;;;;2.92;2.50;;;24.30;31.50;;;;;;5149795;27;20443;-73
2023/05/04 11:48:09;;;;;;;2.90;2.40;;;24.40;30.00;;;;;;5154972;27;20404;-77
2023/05/04 11:50:36;;;;;;;2.60;2.40;;;24.40;29.70;;;;;;5137179;27;20422;-78
2023/05/04 11:53:09;;;;;;;2.70;2.50;;;24.40;29.60;;;;;;5152166;27;20413;-75
2023/05/04 11:55:37;;;;;;;2.95;2.30;;;24.50;29.40;;;;;;5147334;27;20605;-76
2023/05/04 11:58:05;;;;;;;2.90;2.60;;;24.80;29.40;;;;;;5139609;27;20434;-76
2023/05/04 12:00:37;;;;;;;3.45;2.50;;;25.00;29.40;;;;;;5151892;27;20454;-76
2023/05/04 12:03:05;;;;;;;3.83;2.70;;;25.30;28.70;;;;;;5146464;27;20933;-76
2023/05/04 12:05:33;;;;;;;3.40;2.20;;;25.10;28.60;;;;;;5141067;27;20419;-79
2023/05/04 12:08:02;;;;;;;3.53;2.08;;;25.10;28.90;;;;;;5155683;27;20432;-77
2023/05/04 12:10:32;;;;;;;2.45;2.10;;;25.30;28.60;;;;;;5148085;27;20503;-75
2023/05/04 12:12:59;;;;;;;2.65;2.20;;;25.60;28.40;;;;;;5147934;27;20766;-77
2023/05/04 12:15:33;;;;;;;2.30;2.00;;;25.70;28.00;;;;;;5152987;27;20440;-75
2023/05/04 12:17:59;;;;;;;2.70;2.28;;;25.70;27.90;;;;;;5149286;27;20424;-76
2023/05/04 12:20:28;;;;;;;2.42;2.20;;;25.70;27.70;;;;;;5156911;27;20481;-76
2023/05/04 12:22:56;;;;;;;4.87;2.10;;;25.60;28.00;;;;;;5155166;27;20454;-76
2023/05/04 12:25:23;;;;;;;3.70;2.40;;;25.50;27.80;;;;;;5147930;27;20426;-75
2023/05/04 12:27:51;;;;;;;4.60;2.10;;;25.50;28.40;;;;;;5153689;27;20453;-77
2023/05/04 12:30:18;;;;;;;3.10;2.20;;;25.70;27.70;;;;;;5165397;27;20425;-75
2023/05/04 12:32:45;;;;;;;3.33;2.00;;;25.70;27.50;;;;;;5150228;27;20577;-76
2023/05/04 12:35:12;;;;;;;2.40;2.20;;;25.80;27.00;;;;;;5153832;27;20420;-78
2023/05/04 12:37:40;;;;;;;3.28;2.20;;;25.90;26.90;;;;;;5159156;27;20468;-75
2023/05/04 12:40:09;;;;;;;2.88;1.90;;;26.00;27.00;;;;;;5160514;27;20448;-77
2023/05/04 12:42:37;;;;;;;2.28;2.08;;;26.10;27.10;;;;;;5168330;27;20412;-77
2023/05/04 12:45:06;;;;;;;2.35;2.13;;;26.10;27.00;;;;;;5163217;27;20429;-77
2023/05/04 12:47:33;;;;;;;3.50;2.05;;;26.00;28.00;;;;;;5160671;27;20490;-76
2023/05/04 12:50:01;;;;;;;2.60;1.90;;;26.10;27.40;;;;;;5164986;27;20480;-78
2023/05/04 12:52:27;;;;;;;3.30;2.00;;;26.50;27.00;;;;;;5157523;27;20425;-78